createdAt,value
2022-09-16T00:02:13.705Z,13.45
2022-09-16T00:04:42.998Z,11.98
2022-09-16T00:07:12.256Z,16.55
2022-09-16T00:09:41.595Z,12.55
2022-09-16T00:12:10.660Z,13.43
2022-09-16T00:14:39.903Z,18.75
2022-09-16T00:17:10.459Z,16.55
2022-09-16T00:19:39.603Z,16.35
2022-09-16T00:22:08.656Z,10.57
2022-09-16T00:24:38.127Z,10.02
2022-09-16T00:27:07.411Z,14.40
2022-09-16T00:29:36.540Z,20.17
2022-09-16T00:32:08.777Z,13.02
2022-09-16T00:34:39.507Z,12.80
2022-09-16T00:37:09.911Z,16.33
2022-09-16T00:39:39.203Z,13.27
2022-09-16T00:42:08.576Z,11.07
2022-09-16T00:44:59.510Z,14.80
2022-09-16T00:47:34.031Z,18.45
2022-09-16T00:50:11.710Z,18.92
2022-09-16T00:52:43.538Z,17.08
2022-09-16T00:55:18.918Z,16.00
2022-09-16T00:57:48.783Z,20.70
2022-09-16T01:00:18.095Z,16.92
2022-09-16T01:02:48.548Z,12.77
2022-09-16T01:05:23.368Z,13.45
2022-09-16T01:07:54.893Z,13.15
2022-09-16T01:10:27.625Z,16.00
2022-09-16T01:12:59.747Z,13.88
2022-09-16T01:15:38.253Z,15.73
2022-09-16T01:18:19.145Z,13.57
2022-09-16T01:21:08.465Z,14.00
2022-09-16T01:24:25.167Z,12.63
2022-09-16T01:27:31.539Z,11.88
2022-09-16T01:30:44.249Z,9.20
2022-09-16T01:33:24.586Z,8.13
2022-09-16T01:36:13.367Z,10.52
2022-09-16T01:39:05.879Z,13.38
2022-09-16T01:41:46.850Z,7.10
2022-09-16T01:44:27.076Z,14.40
2022-09-16T01:47:04.421Z,19.23
2022-09-16T01:52:22.909Z,17.02
2022-09-16T01:54:57.877Z,18.80
2022-09-16T01:57:35.866Z,18.45
2022-09-16T02:00:11.136Z,19.17
2022-09-16T02:02:46.818Z,18.15
2022-09-16T02:05:20.894Z,12.30
2022-09-16T02:07:57.681Z,25.05
2022-09-16T02:10:32.311Z,16.77
2022-09-16T02:13:11.113Z,20.98
2022-09-16T02:15:43.081Z,16.27
2022-09-16T02:18:16.504Z,13.50
2022-09-16T02:20:48.972Z,12.07
2022-09-16T02:23:24.509Z,9.40
2022-09-16T02:25:55.837Z,12.55
2022-09-16T02:28:30.646Z,13.70
2022-09-16T02:31:03.521Z,10.50
2022-09-16T02:33:39.365Z,11.00
2022-09-16T02:36:10.745Z,8.32
2022-09-16T02:38:49.243Z,10.23
2022-09-16T02:41:18.837Z,15.60
2022-09-16T02:43:47.996Z,13.32
2022-09-16T02:46:25.861Z,12.05
2022-09-16T02:49:10.817Z,8.20
2022-09-16T02:51:52.469Z,15.23
2022-09-16T02:54:26.580Z,12.05
2022-09-16T02:56:57.686Z,12.73
2022-09-16T02:59:27.165Z,12.20
2022-09-16T03:01:56.738Z,14.02
2022-09-16T03:04:27.302Z,16.27
2022-09-16T03:06:56.455Z,11.95
2022-09-16T03:09:26.053Z,11.60
2022-09-16T03:12:12.227Z,12.23
2022-09-16T03:15:09.183Z,8.10
2022-09-16T03:18:01.885Z,9.23
2022-09-16T03:20:44.738Z,11.23
2022-09-16T03:23:25.400Z,11.55
2022-09-16T03:26:05.905Z,6.35
2022-09-16T03:28:48.918Z,8.93
2022-09-16T03:31:25.462Z,6.88
2022-09-16T03:34:05.858Z,15.82
2022-09-16T03:36:42.463Z,20.23
2022-09-16T03:39:13.245Z,15.48
2022-09-16T03:41:42.764Z,10.27
2022-09-16T03:44:12.121Z,9.90
2022-09-16T03:46:41.346Z,7.13
2022-09-16T03:49:10.910Z,10.93
2022-09-16T03:51:41.310Z,6.32
2022-09-16T03:54:10.941Z,4.53
2022-09-16T03:56:40.029Z,7.75
2022-09-16T03:59:09.377Z,10.10
2022-09-16T04:01:38.628Z,9.50
2022-09-16T04:04:07.717Z,9.32
2022-09-16T04:06:37.061Z,4.78
2022-09-16T04:09:08.823Z,4.72
2022-09-16T04:11:37.889Z,6.72
2022-09-16T04:14:08.274Z,6.07
2022-09-16T04:16:41.722Z,10.55
2022-09-16T04:19:14.882Z,4.47
2022-09-16T04:21:44.757Z,6.85
2022-09-16T04:24:15.232Z,15.35
2022-09-16T04:26:44.599Z,6.40
2022-09-16T04:29:14.169Z,7.40
2022-09-16T04:31:43.543Z,8.23
2022-09-16T04:34:13.169Z,4.82
2022-09-16T04:36:42.278Z,10.38
2022-09-16T04:39:12.352Z,8.45
2022-09-16T04:41:43.084Z,11.95
2022-09-16T04:44:12.634Z,8.77
2022-09-16T04:46:42.771Z,9.15
2022-09-16T04:49:12.947Z,8.15
2022-09-16T04:51:42.072Z,19.20
2022-09-16T04:54:11.814Z,13.82
2022-09-16T04:56:42.409Z,6.55
2022-09-16T04:59:11.784Z,7.60
2022-09-16T05:01:41.922Z,6.70
2022-09-16T05:04:11.710Z,7.70
2022-09-16T05:06:43.322Z,7.38
2022-09-16T05:09:13.717Z,9.82
2022-09-16T05:11:44.263Z,10.02
2022-09-16T05:14:17.029Z,7.75
2022-09-16T05:16:47.170Z,7.30
2022-09-16T05:19:16.704Z,7.22
2022-09-16T05:21:45.862Z,7.13
2022-09-16T05:24:15.377Z,5.90
2022-09-16T05:26:46.026Z,8.35
2022-09-16T05:29:17.661Z,7.10
2022-09-16T05:31:48.447Z,9.77
2022-09-16T05:34:20.040Z,5.45
2022-09-16T05:36:54.162Z,11.85
2022-09-16T05:39:26.274Z,6.93
2022-09-16T05:41:59.384Z,7.10
2022-09-16T05:44:29.760Z,6.80
2022-09-16T05:46:58.967Z,12.32
2022-09-16T05:49:28.158Z,7.45
2022-09-16T05:51:57.381Z,8.70
2022-09-16T05:54:26.594Z,10.52
2022-09-16T05:56:57.105Z,9.70
2022-09-16T05:59:26.363Z,8.45
2022-09-16T06:01:55.651Z,8.80
2022-09-16T06:04:24.830Z,8.25
2022-09-16T06:06:54.012Z,10.55
2022-09-16T06:09:26.030Z,8.95
2022-09-16T06:12:01.638Z,6.93
2022-09-16T06:14:31.491Z,7.53
2022-09-16T06:17:00.727Z,7.00
2022-09-16T06:19:30.126Z,10.35
2022-09-16T06:21:59.394Z,8.05
2022-09-16T06:24:28.808Z,10.50
2022-09-16T06:26:59.485Z,9.68
2022-09-16T06:29:30.758Z,7.60
2022-09-16T06:31:59.870Z,12.40
2022-09-16T06:34:31.067Z,13.73
2022-09-16T06:37:01.231Z,7.18
2022-09-16T06:39:30.350Z,9.45
2022-09-16T06:42:00.738Z,9.27
2022-09-16T06:44:42.741Z,10.35
2022-09-16T06:47:11.955Z,10.02
2022-09-16T06:49:41.057Z,11.35
2022-09-16T06:52:11.834Z,7.18
2022-09-16T06:54:41.103Z,13.82
2022-09-16T06:57:12.479Z,7.00
2022-09-16T06:59:41.783Z,7.50
2022-09-16T07:02:12.191Z,11.93
2022-09-16T07:04:41.645Z,6.30
2022-09-16T07:07:11.057Z,9.13
2022-09-16T07:09:40.598Z,10.27
2022-09-16T07:12:17.532Z,9.02
2022-09-16T07:14:49.752Z,8.18
2022-09-16T07:17:18.849Z,6.75
2022-09-16T07:19:49.503Z,7.75
2022-09-16T07:22:18.595Z,5.97
2022-09-16T07:24:48.794Z,7.07
2022-09-16T07:27:20.345Z,11.55
2022-09-16T07:29:49.534Z,8.70
2022-09-16T07:32:18.816Z,8.18
2022-09-16T07:34:48.067Z,8.32
2022-09-16T07:37:18.531Z,11.45
2022-09-16T07:39:47.741Z,8.90
2022-09-16T07:42:16.997Z,6.05
2022-09-16T07:44:47.671Z,6.13
2022-09-16T07:47:21.454Z,9.43
2022-09-16T07:49:55.970Z,8.82
2022-09-16T07:52:29.408Z,6.95
2022-09-16T07:54:58.567Z,6.38
2022-09-16T07:57:27.773Z,6.72
2022-09-16T07:59:59.902Z,8.20
2022-09-16T08:02:29.271Z,7.68
2022-09-16T08:04:58.464Z,8.68
2022-09-16T08:07:28.711Z,8.18
2022-09-16T08:09:57.819Z,6.40
2022-09-16T08:12:32.342Z,7.15
2022-09-16T08:15:06.783Z,10.30
2022-09-16T08:17:36.342Z,9.95
2022-09-16T08:20:07.323Z,9.98
2022-09-16T08:22:36.809Z,12.70
2022-09-16T08:25:07.988Z,10.55
2022-09-16T08:27:37.527Z,8.15
2022-09-16T08:30:11.279Z,9.48
2022-09-16T08:32:40.503Z,13.55
2022-09-16T08:35:10.011Z,12.55
2022-09-16T08:37:39.100Z,16.15
2022-09-16T08:40:09.725Z,9.30
2022-09-16T08:42:54.985Z,8.68
2022-09-16T08:45:36.798Z,11.63
2022-09-16T08:48:28.717Z,9.15
2022-09-16T08:51:01.362Z,11.35
2022-09-16T08:53:38.875Z,15.02
2022-09-16T08:56:15.189Z,10.68
2022-09-16T08:58:48.698Z,9.85
2022-09-16T09:01:26.000Z,11.52
2022-09-16T09:06:44.428Z,14.23
2022-09-16T09:09:33.221Z,19.83
2022-09-16T09:12:15.304Z,12.70
2022-09-16T09:15:18.800Z,9.95
2022-09-16T09:18:08.381Z,11.05
2022-09-16T09:20:54.399Z,8.50
2022-09-16T09:23:47.817Z,7.20
2022-09-16T09:26:23.182Z,9.85
2022-09-16T09:29:17.341Z,8.75
2022-09-16T09:31:58.509Z,13.75
2022-09-16T09:34:50.945Z,9.38
2022-09-16T09:37:39.168Z,9.40
2022-09-16T09:40:17.266Z,13.45
2022-09-16T09:42:52.400Z,11.77
2022-09-16T09:45:29.141Z,11.40
2022-09-16T09:48:03.813Z,15.68
2022-09-16T09:50:42.847Z,8.43
2022-09-16T09:53:19.874Z,11.48
2022-09-16T09:55:50.930Z,8.02
2022-09-16T09:58:30.592Z,8.75
2022-09-16T10:00:59.725Z,10.10
2022-09-16T10:03:31.032Z,10.18
2022-09-16T10:06:01.612Z,9.55
2022-09-16T10:08:35.810Z,15.63
2022-09-16T10:11:18.415Z,12.57
2022-09-16T10:13:53.304Z,9.05
2022-09-16T10:16:26.828Z,12.32
2022-09-16T10:19:03.061Z,13.57
2022-09-16T10:21:47.724Z,8.52
2022-09-16T10:24:33.169Z,7.97
2022-09-16T10:27:19.378Z,7.75
2022-09-16T10:29:48.570Z,9.00
2022-09-16T10:32:20.633Z,5.93
2022-09-16T10:34:49.880Z,8.82
2022-09-16T10:37:21.963Z,9.32
2022-09-16T10:39:54.332Z,8.27
2022-09-16T10:42:27.132Z,8.80
2022-09-16T10:45:04.974Z,8.65
2022-09-16T10:47:36.366Z,7.13
2022-09-16T10:50:07.696Z,8.52
2022-09-16T10:52:46.457Z,12.15
2022-09-16T10:55:26.494Z,7.25
2022-09-16T10:58:07.425Z,7.25
2022-09-16T11:00:49.668Z,9.57
2022-09-16T11:03:54.404Z,9.63
2022-09-16T11:06:44.358Z,9.77
2022-09-16T11:09:27.624Z,9.50
2022-09-16T11:12:18.972Z,8.15
2022-09-16T11:15:01.228Z,10.80
2022-09-16T11:17:56.760Z,9.70
2022-09-16T11:20:55.081Z,6.78
2022-09-16T11:23:42.310Z,10.07
2022-09-16T11:26:20.753Z,7.37
2022-09-16T11:29:15.353Z,9.45
2022-09-16T11:31:55.615Z,9.52
2022-09-16T11:34:41.717Z,10.73
2022-09-16T11:37:22.177Z,10.05
2022-09-16T11:40:16.301Z,9.82
2022-09-16T11:42:59.653Z,7.82
2022-09-16T11:45:45.120Z,12.88
2022-09-16T11:48:40.651Z,13.05
2022-09-16T11:51:32.669Z,6.38
2022-09-16T11:57:03.135Z,9.60
2022-09-16T11:59:42.058Z,8.55
2022-09-16T12:02:23.942Z,6.43
2022-09-16T12:05:00.741Z,6.82
2022-09-16T12:07:38.687Z,9.40
2022-09-16T12:10:17.330Z,6.22
2022-09-16T12:12:52.918Z,7.25
2022-09-16T12:15:28.768Z,7.95
2022-09-16T12:18:03.898Z,7.28
2022-09-16T12:20:38.041Z,7.53
2022-09-16T12:23:15.789Z,6.32
2022-09-16T12:25:54.122Z,6.63
2022-09-16T12:28:30.736Z,5.15
2022-09-16T12:31:13.965Z,6.10
2022-09-16T12:33:50.736Z,7.57
2022-09-16T12:36:26.232Z,6.82
2022-09-16T12:38:55.468Z,8.93
2022-09-16T12:42:20.354Z,8.40
2022-09-16T12:45:14.380Z,8.85
2022-09-16T12:48:26.758Z,4.97
2022-09-16T12:51:20.411Z,5.18
2022-09-16T12:54:25.789Z,5.80
2022-09-16T12:57:21.028Z,5.68
2022-09-16T13:00:20.744Z,6.80
2022-09-16T13:02:55.785Z,6.15
2022-09-16T13:05:33.156Z,8.57
2022-09-16T13:08:07.194Z,5.75
2022-09-16T13:10:55.886Z,6.25
2022-09-16T13:13:36.374Z,7.80
2022-09-16T13:16:08.958Z,5.93
2022-09-16T13:18:50.771Z,9.98
2022-09-16T13:21:31.176Z,5.97
2022-09-16T13:24:07.202Z,7.88
2022-09-16T13:26:44.957Z,6.03
2022-09-16T13:29:43.867Z,7.30
2022-09-16T13:32:38.340Z,10.60
2022-09-16T13:35:39.055Z,8.73
2022-09-16T13:38:39.753Z,10.25
2022-09-16T13:41:11.880Z,10.32
2022-09-16T13:43:53.995Z,5.72
2022-09-16T13:46:37.003Z,7.10
2022-09-16T13:49:21.933Z,6.63
2022-09-16T13:51:53.808Z,7.53
2022-09-16T13:54:43.286Z,6.80
2022-09-16T13:57:34.785Z,6.95
2022-09-16T14:00:22.927Z,6.75
2022-09-16T14:05:46.192Z,6.13
2022-09-16T14:08:26.480Z,9.65
2022-09-16T14:11:03.041Z,10.15
2022-09-16T14:13:41.312Z,7.20
2022-09-16T14:16:19.621Z,5.82
2022-09-16T14:18:57.865Z,6.90
2022-09-16T14:21:27.296Z,12.50
2022-09-16T14:24:17.741Z,11.13
2022-09-16T14:26:54.135Z,8.25
2022-09-16T14:29:27.274Z,7.93
2022-09-16T14:31:58.265Z,11.82
2022-09-16T14:34:33.895Z,10.50
2022-09-16T14:37:03.412Z,6.63
2022-09-16T14:39:35.685Z,8.40
2022-09-16T14:42:08.306Z,11.70
2022-09-16T14:44:41.011Z,7.55
2022-09-16T14:47:30.726Z,8.60
2022-09-16T14:52:41.770Z,7.53
2022-09-16T14:55:20.505Z,7.10
2022-09-16T14:57:50.050Z,7.93
2022-09-16T15:00:20.480Z,8.93
2022-09-16T15:02:56.051Z,8.73
2022-09-16T15:05:30.628Z,6.65
2022-09-16T15:08:14.186Z,9.77
2022-09-16T15:10:52.455Z,6.88
2022-09-16T15:13:25.673Z,8.32
2022-09-16T15:15:58.309Z,8.30
2022-09-16T15:18:32.257Z,7.40
2022-09-16T15:21:09.161Z,11.30
2022-09-16T15:23:41.746Z,8.07
2022-09-16T15:26:19.600Z,8.63
2022-09-16T15:28:58.860Z,7.70
2022-09-16T15:31:36.787Z,6.80
2022-09-16T15:34:21.860Z,6.95
2022-09-16T15:36:55.980Z,6.57
2022-09-16T15:39:28.752Z,7.50
2022-09-16T15:42:13.153Z,6.85
2022-09-16T15:44:48.855Z,9.82
2022-09-16T15:47:21.708Z,9.38
2022-09-16T15:49:54.979Z,7.30
2022-09-16T15:52:24.062Z,8.30
2022-09-16T15:55:00.292Z,7.07
2022-09-16T15:57:37.184Z,7.53
2022-09-16T16:00:12.539Z,8.10
2022-09-16T16:02:51.765Z,7.40
2022-09-16T16:05:23.580Z,8.65
2022-09-16T16:07:55.204Z,9.15
2022-09-16T16:10:26.866Z,8.70
2022-09-16T16:12:57.878Z,10.15
2022-09-16T16:15:31.732Z,8.27
2022-09-16T16:18:05.703Z,9.35
2022-09-16T16:20:37.389Z,7.82
2022-09-16T16:23:07.213Z,9.75
2022-09-16T16:25:36.315Z,7.93
2022-09-16T16:28:06.764Z,9.88
2022-09-16T16:30:35.764Z,9.73
2022-09-16T16:33:08.537Z,10.43
2022-09-16T16:35:37.596Z,8.50
2022-09-16T16:38:06.638Z,8.98
2022-09-16T16:40:35.898Z,11.15
2022-09-16T16:43:06.434Z,10.70
2022-09-16T16:45:36.441Z,8.40
2022-09-16T16:48:05.552Z,12.82
2022-09-16T16:50:34.632Z,10.15
2022-09-16T16:53:03.637Z,8.95
2022-09-16T16:55:33.209Z,10.73
2022-09-16T16:58:02.282Z,12.38
2022-09-16T17:00:33.223Z,10.68
2022-09-16T17:03:02.511Z,12.48
2022-09-16T17:05:32.410Z,12.70
2022-09-16T17:08:01.588Z,11.95
2022-09-16T17:10:31.007Z,11.05
2022-09-16T17:13:00.406Z,11.55
2022-09-16T17:15:29.551Z,9.02
2022-09-16T17:18:00.037Z,12.60
2022-09-16T17:20:29.203Z,14.43
2022-09-16T17:22:58.393Z,13.23
2022-09-16T17:25:27.875Z,9.63
2022-09-16T17:27:57.340Z,9.98
2022-09-16T17:30:26.392Z,9.25
2022-09-16T17:32:55.504Z,11.80
2022-09-16T17:35:26.102Z,15.07
2022-09-16T17:37:55.184Z,13.63
2022-09-16T17:40:24.181Z,12.80
2022-09-16T17:42:53.518Z,19.17
2022-09-16T17:45:22.704Z,16.13
2022-09-16T17:47:51.805Z,12.85
2022-09-16T17:50:22.963Z,12.63
2022-09-16T17:52:54.324Z,21.55
2022-09-16T17:55:23.434Z,17.15
2022-09-16T17:57:52.487Z,13.65
2022-09-16T18:00:21.625Z,21.90
2022-09-16T18:02:51.368Z,15.10
2022-09-16T18:05:20.486Z,16.45
2022-09-16T18:07:49.611Z,19.27
2022-09-16T18:10:21.144Z,20.40
2022-09-16T18:12:50.509Z,18.13
2022-09-16T18:15:19.774Z,15.38
2022-09-16T18:17:49.290Z,18.88
2022-09-16T18:20:18.965Z,15.82
2022-09-16T18:22:49.892Z,16.20
2022-09-16T18:25:20.545Z,15.35
2022-09-16T18:27:50.541Z,16.33
2022-09-16T18:30:20.418Z,19.73
2022-09-16T18:32:50.964Z,20.02
2022-09-16T18:35:20.680Z,18.73
2022-09-16T18:37:49.676Z,17.50
2022-09-16T18:40:20.287Z,16.85
2022-09-16T18:42:49.434Z,18.52
2022-09-16T18:45:18.524Z,16.90
2022-09-16T18:47:47.669Z,19.10
2022-09-16T18:50:17.761Z,17.38
2022-09-16T18:52:48.077Z,19.00
2022-09-16T18:55:17.588Z,15.30
2022-09-16T18:57:48.313Z,15.40
2022-09-16T19:00:18.679Z,15.25
2022-09-16T19:02:51.898Z,17.10
2022-09-16T19:05:21.248Z,16.30
2022-09-16T19:07:50.809Z,17.33
2022-09-16T19:10:20.072Z,18.63
2022-09-16T19:12:52.052Z,15.25
2022-09-16T19:15:22.367Z,15.85
2022-09-16T19:17:52.076Z,18.67
2022-09-16T19:20:21.613Z,15.27
2022-09-16T19:22:50.725Z,21.77
2022-09-16T19:25:19.908Z,19.45
2022-09-16T19:27:50.501Z,16.85
2022-09-16T19:30:19.741Z,17.05
2022-09-16T19:32:49.067Z,18.08
2022-09-16T19:35:19.221Z,22.52
2022-09-16T19:37:50.527Z,15.60
2022-09-16T19:40:19.850Z,16.15
2022-09-16T19:42:50.960Z,17.10
2022-09-16T19:45:21.428Z,14.45
2022-09-16T19:47:53.005Z,27.25
2022-09-16T19:50:22.405Z,19.02
2022-09-16T19:52:51.540Z,14.00
2022-09-16T19:55:20.833Z,13.05
2022-09-16T19:57:51.370Z,9.35
2022-09-16T20:00:20.594Z,8.75
2022-09-16T20:02:49.745Z,7.88
2022-09-16T20:05:18.862Z,8.35
2022-09-16T20:07:48.005Z,7.88
2022-09-16T20:10:18.927Z,7.18
2022-09-16T20:12:48.372Z,6.88
2022-09-16T20:15:18.777Z,5.20
2022-09-16T20:17:47.864Z,7.90
2022-09-16T20:20:17.095Z,6.32
2022-09-16T20:22:46.117Z,7.25
2022-09-16T20:25:23.085Z,7.45
2022-09-16T20:27:52.736Z,6.22
2022-09-16T20:30:23.163Z,4.85
2022-09-16T20:32:52.881Z,5.57
2022-09-16T20:35:21.920Z,5.00
2022-09-16T20:37:50.990Z,6.63
2022-09-16T20:40:20.127Z,8.13
2022-09-16T20:42:49.285Z,7.47
2022-09-16T20:45:18.323Z,7.05
2022-09-16T20:47:52.353Z,7.03
2022-09-16T20:50:21.518Z,7.20
2022-09-16T20:52:50.588Z,5.53
2022-09-16T20:55:19.677Z,9.13
2022-09-16T20:57:49.993Z,8.68
2022-09-16T21:00:19.228Z,9.65
2022-09-16T21:02:49.744Z,6.32
2022-09-16T21:05:18.806Z,12.32
2022-09-16T21:07:48.025Z,7.90
2022-09-16T21:10:18.109Z,8.18
2022-09-16T21:12:48.771Z,12.02
2022-09-16T21:15:18.001Z,5.85
2022-09-16T21:17:47.188Z,6.70
2022-09-16T21:20:18.296Z,7.13
2022-09-16T21:22:47.429Z,8.38
2022-09-16T21:25:16.680Z,11.30
2022-09-16T21:27:45.657Z,8.13
2022-09-16T21:30:15.033Z,7.75
2022-09-16T21:32:44.711Z,8.13
2022-09-16T21:35:14.503Z,9.88
2022-09-16T21:37:44.974Z,8.52
2022-09-16T21:40:14.266Z,11.93
2022-09-16T21:42:43.337Z,11.50
2022-09-16T21:45:12.544Z,7.75
2022-09-16T21:47:41.569Z,7.40
2022-09-16T21:50:11.044Z,7.78
2022-09-16T21:52:40.072Z,11.70
2022-09-16T21:55:10.832Z,8.00
2022-09-16T21:57:39.887Z,6.55
2022-09-16T22:00:11.472Z,9.02
2022-09-16T22:02:40.605Z,6.68
2022-09-16T22:05:10.571Z,9.90
2022-09-16T22:07:39.625Z,8.82
2022-09-16T22:10:11.151Z,7.70
2022-09-16T22:12:40.264Z,7.18
2022-09-16T22:15:10.474Z,15.70
2022-09-16T22:17:43.195Z,8.38
2022-09-16T22:20:12.835Z,9.65
2022-09-16T22:22:41.930Z,9.25
2022-09-16T22:25:12.475Z,7.32
2022-09-16T22:27:41.536Z,10.05
2022-09-16T22:30:12.935Z,7.45
2022-09-16T22:32:42.025Z,7.38
2022-09-16T22:35:11.089Z,6.03
2022-09-16T22:37:40.171Z,7.82
2022-09-16T22:40:11.505Z,10.18
2022-09-16T22:42:40.540Z,9.55
2022-09-16T22:45:10.808Z,7.55
2022-09-16T22:47:40.004Z,8.65
2022-09-16T22:50:09.921Z,7.40
2022-09-16T22:52:39.089Z,9.65
2022-09-16T22:55:09.165Z,7.50
2022-09-16T22:57:39.649Z,8.25
2022-09-16T23:00:10.773Z,10.23
2022-09-16T23:02:39.835Z,9.65
2022-09-16T23:05:10.934Z,13.45
2022-09-16T23:07:39.938Z,8.85
2022-09-16T23:10:10.752Z,8.43
2022-09-16T23:12:42.613Z,10.73
2022-09-16T23:15:14.155Z,9.13
2022-09-16T23:17:43.192Z,9.27
2022-09-16T23:20:12.285Z,8.38
2022-09-16T23:22:41.283Z,9.77
2022-09-16T23:25:10.778Z,10.02
2022-09-16T23:27:41.173Z,9.40
2022-09-16T23:30:12.031Z,17.92
2022-09-16T23:32:41.689Z,7.90
2022-09-16T23:35:11.318Z,10.45
2022-09-16T23:37:40.417Z,10.88
2022-09-16T23:40:11.209Z,11.10
2022-09-16T23:42:41.655Z,9.88
2022-09-16T23:45:11.369Z,12.45
2022-09-16T23:47:40.428Z,11.40
2022-09-16T23:50:11.444Z,13.27
2022-09-16T23:52:41.820Z,14.73
2022-09-16T23:55:11.055Z,11.90
2022-09-16T23:57:42.485Z,12.00
